Time;durP1;ratioP1;P1;durP2;ratioP2;P2;SDS_P1;SDS_P2;PMS_P1;PMS_P2;Temp;Humidity;BMP_temperature;BMP_pressure;BME280_temperature;BME280_humidity;BME280_pressure;Samples;Min_cycle;Max_cycle;Signal;HPM_P1;HPM_P2
2021/01/22 00:00:32;;;;;;;10.23;5.07;;;6.70;60.00;;;;;;5070707;28;20035;-82
2021/01/22 00:02:58;;;;;;;11.10;6.23;;;6.70;60.30;;;;;;5070591;28;20601;-82
2021/01/22 00:05:24;;;;;;;9.87;5.40;;;6.70;60.40;;;;;;5076361;28;20066;-82
2021/01/22 00:07:50;;;;;;;9.43;4.87;;;6.70;60.60;;;;;;5076347;28;20055;-82
2021/01/22 00:10:15;;;;;;;8.37;4.67;;;6.60;60.50;;;;;;5075176;28;20031;-82
2021/01/22 00:12:41;;;;;;;7.50;3.87;;;6.60;60.70;;;;;;5062982;28;20113;-82
2021/01/22 00:15:08;;;;;;;8.10;4.57;;;6.50;61.00;;;;;;5076668;28;20027;-82
2021/01/22 00:17:34;;;;;;;5.50;2.73;;;6.40;61.20;;;;;;5076584;28;20078;-83
2021/01/22 00:20:00;;;;;;;6.20;3.00;;;6.30;61.50;;;;;;5075588;28;20025;-83
2021/01/22 00:22:25;;;;;;;8.90;4.47;;;6.40;61.80;;;;;;5063898;28;20438;-83
2021/01/22 00:24:51;;;;;;;8.33;5.13;;;6.50;61.70;;;;;;5071669;28;20025;-82
2021/01/22 00:27:17;;;;;;;8.70;5.00;;;6.50;61.50;;;;;;5069376;28;20392;-82
2021/01/22 00:29:42;;;;;;;9.60;5.30;;;6.60;61.40;;;;;;5068052;28;20036;-82
2021/01/22 00:32:08;;;;;;;11.30;5.73;;;6.60;61.30;;;;;;5067349;28;20070;-83
2021/01/22 00:34:34;;;;;;;6.90;4.70;;;6.50;61.40;;;;;;5075922;28;20028;-83
2021/01/22 00:36:59;;;;;;;15.63;5.77;;;6.40;61.60;;;;;;5073053;28;20519;-83
2021/01/22 00:39:25;;;;;;;11.20;5.27;;;6.50;61.60;;;;;;5071841;28;20051;-83
2021/01/22 00:41:51;;;;;;;9.00;4.83;;;6.40;61.60;;;;;;5065580;28;20037;-83
2021/01/22 00:44:17;;;;;;;9.13;4.07;;;6.40;61.70;;;;;;5055981;28;20025;-83
2021/01/22 00:46:42;;;;;;;7.53;3.27;;;6.40;61.70;;;;;;5059737;28;20521;-83
2021/01/22 00:49:08;;;;;;;8.57;3.30;;;6.30;62.10;;;;;;5075113;28;20082;-83
2021/01/22 00:51:34;;;;;;;7.93;4.03;;;6.30;62.30;;;;;;5069950;28;20096;-83
2021/01/22 00:54:00;;;;;;;8.53;3.40;;;6.30;62.30;;;;;;5059312;28;20604;-83
2021/01/22 00:56:25;;;;;;;5.77;3.30;;;6.40;62.20;;;;;;5069369;28;20056;-83
2021/01/22 00:58:51;;;;;;;8.97;4.40;;;6.40;62.30;;;;;;5054861;28;20111;-83
2021/01/22 01:01:17;;;;;;;5.47;2.87;;;6.40;62.20;;;;;;5057435;28;20028;-82
2021/01/22 01:03:43;;;;;;;4.97;3.30;;;6.40;62.10;;;;;;5073845;28;20029;-82
2021/01/22 01:06:09;;;;;;;6.67;4.10;;;6.40;62.10;;;;;;5069123;28;20032;-82
2021/01/22 01:08:35;;;;;;;6.70;3.27;;;6.40;62.20;;;;;;5074834;28;20033;-82
2021/01/22 01:11:00;;;;;;;7.80;3.73;;;6.50;62.20;;;;;;5064286;28;20035;-82
2021/01/22 01:13:26;;;;;;;6.20;3.17;;;6.40;62.20;;;;;;5070906;28;20036;-83
2021/01/22 01:15:52;;;;;;;3.70;2.17;;;6.40;62.30;;;;;;5072297;28;20033;-83
2021/01/22 01:18:17;;;;;;;2.30;1.40;;;6.50;62.50;;;;;;5067986;28;20052;-83
2021/01/22 01:20:43;;;;;;;2.93;1.53;;;6.50;62.30;;;;;;5067708;28;20040;-83
2021/01/22 01:23:14;;;;;;;11.03;1.83;;;6.50;62.50;;;;;;5066816;28;20024;-83
2021/01/22 01:25:41;;;;;;;4.93;1.33;;;6.60;62.50;;;;;;5064820;28;20037;-83
2021/01/22 01:28:07;;;;;;;1.77;0.93;;;6.60;62.20;;;;;;5068564;28;20036;-83
2021/01/22 01:30:34;;;;;;;2.07;1.00;;;6.60;62.20;;;;;;5064689;28;20044;-83
2021/01/22 01:33:00;;;;;;;1.27;0.60;;;6.70;62.40;;;;;;5067396;28;20041;-83
2021/01/22 01:35:26;;;;;;;1.03;0.47;;;6.50;62.20;;;;;;5073039;28;20740;-83
2021/01/22 01:37:51;;;;;;;1.10;0.50;;;6.50;62.70;;;;;;5072767;28;20099;-83
2021/01/22 01:40:17;;;;;;;1.03;0.30;;;6.60;62.70;;;;;;5068444;28;20822;-83
2021/01/22 01:42:43;;;;;;;0.80;0.40;;;6.80;62.80;;;;;;5072496;28;20031;-83
2021/01/22 01:45:09;;;;;;;1.33;0.63;;;6.90;62.50;;;;;;5056873;28;20021;-83
2021/01/22 01:47:35;;;;;;;4.30;2.23;;;7.00;62.00;;;;;;5072836;28;20036;-83
2021/01/22 01:50:00;;;;;;;8.23;2.83;;;7.00;61.70;;;;;;5075959;28;20059;-83
2021/01/22 01:52:26;;;;;;;4.07;2.60;;;6.90;61.60;;;;;;5068614;28;20021;-83
2021/01/22 01:54:52;;;;;;;2.80;1.23;;;6.80;61.70;;;;;;5062106;28;20040;-82
2021/01/22 01:57:18;;;;;;;6.50;2.50;;;6.90;61.80;;;;;;5069079;28;20025;-83
2021/01/22 01:59:44;;;;;;;5.83;3.47;;;6.90;61.50;;;;;;5066240;28;20444;-83
2021/01/22 02:02:10;;;;;;;10.23;3.00;;;6.80;61.70;;;;;;5068324;28;20048;-83
2021/01/22 02:04:37;;;;;;;5.23;2.80;;;6.70;61.60;;;;;;5073992;28;20021;-82
2021/01/22 02:07:02;;;;;;;2.30;0.50;;;6.70;61.90;;;;;;5072904;28;20055;-82
2021/01/22 02:09:29;;;;;;;4.80;1.80;;;6.80;62.10;;;;;;5066990;28;20059;-82
2021/01/22 02:11:55;;;;;;;6.80;2.90;;;6.80;61.80;;;;;;5073159;28;20025;-82
2021/01/22 02:14:21;;;;;;;5.93;3.37;;;6.80;61.60;;;;;;5059106;28;20025;-82
2021/01/22 02:16:47;;;;;;;10.03;4.00;;;6.80;61.70;;;;;;5065438;28;20119;-82
2021/01/22 02:19:15;;;;;;;7.10;4.00;;;6.70;61.60;;;;;;5072631;28;20111;-82
2021/01/22 02:21:41;;;;;;;6.77;4.10;;;6.70;61.80;;;;;;5066844;28;20025;-83
2021/01/22 02:24:12;;;;;;;5.90;3.50;;;6.70;61.70;;;;;;5071957;28;20043;-83
2021/01/22 02:27:07;;;;;;;5.83;3.40;;;6.60;61.90;;;;;;5058908;28;20040;-83
2021/01/22 02:29:37;;;;;;;8.00;3.50;;;6.50;62.10;;;;;;5071546;28;20166;-83
2021/01/22 02:32:08;;;;;;;10.37;4.53;;;6.50;62.00;;;;;;5076859;28;20048;-83
2021/01/22 02:34:37;;;;;;;8.43;4.27;;;6.40;62.20;;;;;;5075840;28;20028;-83
2021/01/22 02:37:06;;;;;;;7.37;4.10;;;6.40;62.90;;;;;;5072910;28;20039;-82
2021/01/22 02:39:36;;;;;;;8.43;5.00;;;6.40;62.50;;;;;;5075524;28;20327;-82
2021/01/22 02:42:03;;;;;;;9.90;5.23;;;6.40;62.50;;;;;;5057000;28;20518;-83
2021/01/22 02:44:30;;;;;;;10.20;5.00;;;6.30;62.40;;;;;;5058930;28;20036;-83
2021/01/22 02:46:59;;;;;;;6.83;4.13;;;6.30;62.30;;;;;;5068606;28;20103;-82
2021/01/22 02:49:26;;;;;;;8.20;3.27;;;6.20;62.20;;;;;;5071193;28;20043;-82
2021/01/22 02:51:52;;;;;;;8.87;4.70;;;6.20;62.40;;;;;;5062899;28;20475;-82
2021/01/22 02:54:17;;;;;;;11.83;4.57;;;6.20;62.60;;;;;;5060088;28;20078;-82
2021/01/22 02:56:55;;;;;;;9.53;4.50;;;6.20;62.70;;;;;;5072124;28;20059;-82
2021/01/22 02:59:42;;;;;;;6.77;3.80;;;6.20;62.70;;;;;;5076011;28;20090;-82
2021/01/22 03:02:26;;;;;;;13.20;3.87;;;6.20;62.70;;;;;;5070058;28;20475;-82
2021/01/22 03:04:53;;;;;;;7.97;4.50;;;6.30;62.80;;;;;;5074447;28;20024;-82
2021/01/22 03:07:34;;;;;;;8.33;4.10;;;6.20;62.60;;;;;;5060820;28;20387;-82
2021/01/22 03:10:01;;;;;;;7.20;3.93;;;6.20;62.60;;;;;;5062306;28;20089;-82
2021/01/22 03:12:28;;;;;;;8.70;4.70;;;6.20;62.50;;;;;;5074109;28;20332;-82
2021/01/22 03:14:57;;;;;;;9.07;4.20;;;6.00;62.90;;;;;;5074680;28;20499;-83
2021/01/22 03:17:22;;;;;;;7.77;3.63;;;6.00;63.40;;;;;;5069657;28;20082;-83
2021/01/22 03:19:49;;;;;;;9.47;4.07;;;6.00;63.40;;;;;;5069011;28;20021;-83
2021/01/22 03:22:16;;;;;;;5.83;4.00;;;6.10;63.40;;;;;;5063343;28;20383;-83
2021/01/22 03:24:43;;;;;;;7.60;4.17;;;6.10;63.40;;;;;;5056593;28;20025;-83
2021/01/22 03:27:10;;;;;;;5.77;3.80;;;6.10;63.30;;;;;;5063894;28;20048;-83
2021/01/22 03:29:37;;;;;;;8.33;4.60;;;6.20;63.40;;;;;;5060396;28;20458;-83
2021/01/22 03:32:04;;;;;;;8.37;4.77;;;6.20;63.50;;;;;;5057423;28;20041;-82
2021/01/22 03:34:30;;;;;;;8.03;4.90;;;6.20;63.50;;;;;;5059137;28;20027;-82
2021/01/22 03:36:57;;;;;;;12.67;5.73;;;6.20;63.40;;;;;;5060117;28;20123;-82
2021/01/22 03:39:23;;;;;;;8.67;5.53;;;6.10;63.40;;;;;;5060753;28;20028;-82
2021/01/22 03:41:49;;;;;;;10.97;4.70;;;6.10;63.50;;;;;;5071840;28;20031;-82
2021/01/22 03:44:17;;;;;;;9.13;4.87;;;6.20;64.20;;;;;;5071478;28;20025;-82
2021/01/22 03:46:43;;;;;;;7.00;4.37;;;6.20;63.50;;;;;;5057806;28;20044;-82
2021/01/22 03:49:10;;;;;;;18.13;6.27;;;6.20;63.30;;;;;;5062542;28;20023;-82
2021/01/22 03:51:35;;;;;;;8.43;4.50;;;6.20;63.30;;;;;;5066380;28;20040;-83
2021/01/22 03:54:01;;;;;;;7.93;4.20;;;6.20;63.30;;;;;;5065679;28;20037;-83
2021/01/22 03:56:27;;;;;;;8.13;3.90;;;6.20;63.40;;;;;;5073946;28;20040;-83
2021/01/22 03:58:53;;;;;;;7.10;4.00;;;6.20;63.50;;;;;;5075614;28;20048;-83
2021/01/22 04:01:19;;;;;;;6.00;3.73;;;6.20;63.50;;;;;;5070816;28;20020;-83
2021/01/22 04:03:45;;;;;;;11.80;3.83;;;6.10;63.60;;;;;;5060820;28;20025;-82
2021/01/22 04:06:11;;;;;;;7.00;4.77;;;6.10;64.10;;;;;;5077130;28;20039;-82
2021/01/22 04:08:37;;;;;;;11.03;4.63;;;6.10;63.80;;;;;;5072743;28;20033;-82
2021/01/22 04:11:02;;;;;;;8.97;4.50;;;6.10;63.90;;;;;;5070794;28;20035;-82
2021/01/22 04:13:28;;;;;;;8.23;3.83;;;6.10;63.80;;;;;;5070393;28;20029;-82
2021/01/22 04:15:54;;;;;;;5.83;3.30;;;6.10;63.80;;;;;;5064128;28;20048;-82
2021/01/22 04:18:19;;;;;;;7.23;4.07;;;6.20;64.10;;;;;;5071556;28;20035;-82
2021/01/22 04:20:45;;;;;;;8.20;4.40;;;6.20;64.40;;;;;;5062236;28;20040;-82
2021/01/22 04:23:11;;;;;;;6.07;3.73;;;6.20;63.70;;;;;;5057473;28;20017;-82
2021/01/22 04:25:36;;;;;;;8.40;4.67;;;6.20;63.70;;;;;;5054520;28;20025;-82
2021/01/22 04:28:02;;;;;;;8.57;4.07;;;6.10;63.60;;;;;;5061075;28;20480;-82
2021/01/22 04:30:28;;;;;;;6.57;4.20;;;6.10;63.60;;;;;;5068461;28;20040;-82
2021/01/22 04:32:53;;;;;;;9.17;4.87;;;6.10;63.70;;;;;;5063919;28;20112;-83
2021/01/22 04:35:19;;;;;;;7.20;4.40;;;6.10;64.30;;;;;;5074214;28;20029;-83
2021/01/22 04:37:45;;;;;;;6.43;3.87;;;6.10;63.70;;;;;;5068738;28;20036;-83
2021/01/22 04:40:11;;;;;;;8.17;4.73;;;6.00;63.80;;;;;;5066684;28;20088;-83
2021/01/22 04:42:41;;;;;;;9.53;5.20;;;6.00;63.80;;;;;;5065417;28;20067;-83
2021/01/22 04:45:13;;;;;;;9.53;5.13;;;6.00;63.90;;;;;;5064237;28;20447;-83
2021/01/22 04:47:40;;;;;;;11.33;4.90;;;6.00;63.80;;;;;;5062413;28;20083;-83
2021/01/22 04:50:07;;;;;;;10.20;5.30;;;6.00;63.70;;;;;;5068974;28;20040;-83
2021/01/22 04:52:35;;;;;;;7.87;5.07;;;6.00;63.70;;;;;;5055093;28;20037;-83
2021/01/22 04:55:03;;;;;;;9.10;5.50;;;5.90;63.70;;;;;;5064349;28;20051;-83
2021/01/22 04:57:31;;;;;;;10.00;4.93;;;5.90;63.90;;;;;;5057271;28;20024;-83
2021/01/22 04:59:58;;;;;;;8.37;4.93;;;5.90;64.10;;;;;;5075300;28;20059;-83
2021/01/22 05:02:24;;;;;;;11.90;4.97;;;5.80;64.00;;;;;;5060955;28;20029;-83
2021/01/22 05:04:51;;;;;;;7.83;5.10;;;5.80;64.10;;;;;;5057065;28;20035;-82
2021/01/22 05:07:20;;;;;;;10.30;5.30;;;5.80;64.30;;;;;;5061086;28;20055;-82
2021/01/22 05:09:45;;;;;;;10.03;5.00;;;5.80;64.20;;;;;;5067127;28;20036;-82
2021/01/22 05:12:11;;;;;;;9.33;4.60;;;5.80;64.30;;;;;;5068062;28;20035;-82
2021/01/22 05:14:37;;;;;;;9.97;4.90;;;5.80;64.20;;;;;;5058346;28;20035;-82
2021/01/22 05:17:03;;;;;;;8.87;4.73;;;5.70;64.40;;;;;;5058924;28;20032;-82
2021/01/22 05:19:29;;;;;;;7.10;5.03;;;5.70;64.50;;;;;;5070769;28;20021;-82
2021/01/22 05:21:55;;;;;;;10.03;5.30;;;5.70;64.50;;;;;;5072954;28;20394;-82
2021/01/22 05:24:21;;;;;;;11.87;6.00;;;5.70;64.40;;;;;;5060046;28;20027;-82
2021/01/22 05:26:57;;;;;;;9.43;5.43;;;5.70;64.30;;;;;;5073144;28;20052;-82
2021/01/22 05:29:22;;;;;;;10.23;6.07;;;5.60;64.50;;;;;;5073199;28;20028;-82
2021/01/22 05:31:48;;;;;;;15.40;6.90;;;5.50;64.50;;;;;;5069156;28;20059;-82
2021/01/22 05:34:14;;;;;;;11.30;6.40;;;5.60;65.00;;;;;;5060747;28;20067;-82
2021/01/22 05:36:39;;;;;;;12.47;6.00;;;5.60;64.80;;;;;;5058975;28;20413;-82
2021/01/22 05:39:05;;;;;;;8.20;5.67;;;5.60;65.00;;;;;;5059843;28;20033;-82
2021/01/22 05:41:31;;;;;;;8.43;5.43;;;5.50;65.00;;;;;;5058408;28;20453;-82
2021/01/22 05:43:57;;;;;;;9.90;5.93;;;5.50;65.00;;;;;;5082803;28;20020;-82
2021/01/22 05:46:27;;;;;;;10.60;5.60;;;5.50;65.10;;;;;;5073591;28;20024;-82
2021/01/22 05:49:12;;;;;;;10.43;6.27;;;5.50;65.00;;;;;;5074500;28;20024;-82
2021/01/22 05:51:38;;;;;;;8.33;5.30;;;5.60;64.90;;;;;;5072031;28;20082;-82
2021/01/22 05:54:04;;;;;;;7.67;5.47;;;5.50;64.70;;;;;;5055636;28;20025;-82
2021/01/22 05:56:30;;;;;;;11.07;6.00;;;5.50;64.70;;;;;;5053063;28;20038;-82
2021/01/22 05:58:56;;;;;;;13.20;5.93;;;5.40;64.70;;;;;;5061088;28;20021;-82
2021/01/22 06:01:26;;;;;;;13.90;5.70;;;5.40;64.70;;;;;;5063476;28;20383;-82
2021/01/22 06:04:05;;;;;;;11.03;5.53;;;5.40;64.50;;;;;;5068075;28;20426;-82
2021/01/22 06:06:32;;;;;;;10.50;6.30;;;5.40;64.70;;;;;;5071272;28;20032;-82
2021/01/22 06:08:59;;;;;;;10.57;6.07;;;5.30;64.70;;;;;;5076456;28;20428;-82
2021/01/22 06:11:26;;;;;;;9.83;5.47;;;5.40;64.70;;;;;;5076457;28;20032;-82
2021/01/22 06:13:57;;;;;;;15.13;5.77;;;5.40;64.70;;;;;;5070276;28;20039;-82
2021/01/22 06:16:28;;;;;;;6.83;4.53;;;5.40;64.80;;;;;;5058455;28;20488;-82
2021/01/22 06:18:57;;;;;;;12.57;8.00;;;5.50;64.70;;;;;;5058232;28;20021;-83
2021/01/22 06:21:31;;;;;;;16.50;8.83;;;5.40;64.70;;;;;;5071517;28;20017;-83
2021/01/22 06:23:59;;;;;;;14.53;8.83;;;5.50;64.80;;;;;;5074949;28;20036;-82
2021/01/22 06:26:26;;;;;;;14.87;8.30;;;5.50;64.70;;;;;;5073898;28;20032;-82
2021/01/22 06:28:52;;;;;;;11.90;6.77;;;5.50;64.50;;;;;;5060795;28;20021;-82
2021/01/22 06:31:20;;;;;;;18.50;9.77;;;5.60;64.70;;;;;;5076418;28;20055;-82
2021/01/22 06:33:48;;;;;;;24.77;12.30;;;5.50;64.60;;;;;;5068646;28;20032;-82
2021/01/22 06:36:15;;;;;;;21.03;11.23;;;5.50;64.70;;;;;;5071863;28;20036;-82
2021/01/22 06:38:42;;;;;;;23.07;11.50;;;5.50;64.60;;;;;;5062495;28;20375;-83
2021/01/22 06:41:09;;;;;;;19.80;10.83;;;5.50;64.70;;;;;;5072125;28;20504;-82
2021/01/22 06:43:39;;;;;;;22.87;12.53;;;5.40;64.80;;;;;;5071411;28;20020;-82
2021/01/22 06:46:12;;;;;;;18.43;11.20;;;5.40;64.90;;;;;;5075866;28;20028;-82
2021/01/22 06:48:51;;;;;;;21.53;14.13;;;5.40;65.10;;;;;;5075292;28;20047;-82
2021/01/22 06:51:17;;;;;;;24.33;13.63;;;5.40;65.00;;;;;;5073765;28;20102;-82
2021/01/22 06:54:08;;;;;;;23.83;13.17;;;5.40;65.00;;;;;;5069821;28;20107;-82
2021/01/22 06:56:54;;;;;;;23.40;14.70;;;5.30;65.00;;;;;;5075552;28;20039;-82
2021/01/22 06:59:20;;;;;;;24.93;14.13;;;5.30;65.00;;;;;;5075969;28;20025;-82
2021/01/22 07:01:47;;;;;;;18.60;10.50;;;5.30;65.00;;;;;;5065747;28;20554;-82
2021/01/22 07:04:31;;;;;;;19.67;10.30;;;5.30;65.00;;;;;;5061763;28;20021;-82
2021/01/22 07:06:57;;;;;;;22.83;12.40;;;5.30;65.30;;;;;;5060990;28;20112;-82
2021/01/22 07:09:49;;;;;;;23.50;13.37;;;5.20;65.20;;;;;;5060945;28;20075;-82
2021/01/22 07:12:39;;;;;;;16.67;10.37;;;5.20;65.40;;;;;;5055870;28;20045;-82
2021/01/22 07:15:25;;;;;;;19.33;10.87;;;5.20;65.40;;;;;;5058358;28;20083;-82
2021/01/22 07:17:55;;;;;;;19.67;11.00;;;5.20;65.50;;;;;;5065346;28;20078;-82
2021/01/22 07:20:21;;;;;;;30.97;15.23;;;5.30;65.40;;;;;;5076329;28;20028;-82
2021/01/22 07:22:54;;;;;;;25.70;14.73;;;5.20;65.20;;;;;;5062323;28;20024;-83
2021/01/22 07:25:34;;;;;;;24.88;14.52;;;5.20;65.70;;;;;;5070691;28;20036;-83
2021/01/22 07:28:22;;;;;;;26.70;14.80;;;5.20;65.70;;;;;;5058239;28;20675;-83
2021/01/22 07:30:48;;;;;;;23.73;13.60;;;5.30;65.60;;;;;;5072388;28;20651;-83
2021/01/22 07:33:43;;;;;;;37.17;17.93;;;5.30;65.40;;;;;;5072531;28;20028;-81
2021/01/22 07:36:10;;;;;;;29.80;17.17;;;5.30;65.40;;;;;;5066150;28;20056;-82
2021/01/22 07:38:38;;;;;;;35.83;17.17;;;5.40;65.30;;;;;;5065217;28;20028;-82
2021/01/22 07:41:05;;;;;;;42.30;19.80;;;5.30;65.30;;;;;;5073426;28;20024;-81
2021/01/22 07:43:32;;;;;;;26.17;14.03;;;5.40;65.30;;;;;;5074895;28;20100;-81
2021/01/22 07:46:11;;;;;;;21.10;11.27;;;5.40;65.30;;;;;;5062570;28;20034;-81
2021/01/22 07:48:39;;;;;;;20.10;10.67;;;5.40;65.20;;;;;;5055648;28;20028;-81
2021/01/22 07:51:31;;;;;;;34.30;14.97;;;5.40;65.20;;;;;;5069245;28;20066;-81
2021/01/22 07:54:01;;;;;;;37.43;15.80;;;5.40;65.10;;;;;;5066252;28;20581;-81
2021/01/22 07:56:37;;;;;;;46.27;20.87;;;5.40;65.20;;;;;;5075422;28;20733;-81
2021/01/22 07:59:04;;;;;;;45.63;19.77;;;5.40;65.20;;;;;;5060526;28;20040;-81
2021/01/22 08:01:30;;;;;;;40.60;18.53;;;5.40;65.20;;;;;;5072029;28;20089;-81
2021/01/22 08:03:56;;;;;;;42.27;17.83;;;5.40;65.20;;;;;;5068865;28;20089;-81
2021/01/22 08:06:22;;;;;;;32.40;15.87;;;5.40;65.30;;;;;;5055826;28;20472;-81
2021/01/22 08:08:48;;;;;;;15.67;8.80;;;5.40;65.40;;;;;;5073699;28;20028;-81
2021/01/22 08:11:20;;;;;;;23.73;11.47;;;5.40;65.50;;;;;;5069904;28;20017;-81
2021/01/22 08:13:46;;;;;;;53.38;20.95;;;5.50;65.60;;;;;;5073163;28;20024;-81
2021/01/22 08:16:22;;;;;;;68.60;26.33;;;5.50;65.40;;;;;;5069154;28;20040;-81
2021/01/22 08:18:48;;;;;;;47.93;21.27;;;5.50;65.40;;;;;;5080005;28;20012;-81
2021/01/22 08:21:14;;;;;;;37.87;18.10;;;5.50;65.40;;;;;;5096032;28;20080;-81
2021/01/22 08:23:43;;;;;;;42.60;18.43;;;5.50;65.40;;;;;;5092008;28;20040;-81
2021/01/22 08:26:13;;;;;;;30.87;13.93;;;5.50;65.40;;;;;;5086462;28;20054;-81
2021/01/22 08:28:39;;;;;;;30.60;14.30;;;5.60;65.30;;;;;;5087440;28;20028;-81
2021/01/22 08:31:10;;;;;;;39.33;16.63;;;5.60;65.40;;;;;;5075533;28;20103;-81
2021/01/22 08:33:36;;;;;;;47.80;20.50;;;5.70;65.30;;;;;;5068680;28;20111;-81
2021/01/22 08:36:04;;;;;;;45.10;20.23;;;5.70;65.20;;;;;;5074007;28;20032;-81
2021/01/22 08:38:31;;;;;;;45.07;20.03;;;5.80;65.30;;;;;;5055010;28;20029;-81
2021/01/22 08:40:57;;;;;;;42.30;19.90;;;5.80;65.20;;;;;;5069957;28;20027;-81
2021/01/22 08:43:24;;;;;;;38.33;18.00;;;5.90;65.20;;;;;;5062441;28;20025;-81
2021/01/22 08:46:20;;;;;;;40.90;19.40;;;6.00;65.10;;;;;;5067121;28;20035;-81
2021/01/22 08:48:46;;;;;;;69.07;37.37;;;6.00;65.00;;;;;;5064931;28;20048;-83
2021/01/22 08:51:12;;;;;;;50.50;24.53;;;6.00;65.00;;;;;;5059265;28;20033;-81
2021/01/22 08:53:51;;;;;;;42.87;20.70;;;6.10;64.90;;;;;;5073114;28;20441;-81
2021/01/22 08:56:21;;;;;;;37.47;16.73;;;6.10;65.00;;;;;;5072145;28;20036;-81
2021/01/22 08:59:01;;;;;;;28.57;14.77;;;6.20;65.00;;;;;;5059029;28;20025;-81
2021/01/22 09:01:45;;;;;;;34.73;15.60;;;6.20;65.60;;;;;;5064447;28;20031;-81
2021/01/22 09:04:23;;;;;;;25.40;14.33;;;6.20;64.90;;;;;;5069556;28;20024;-81
2021/01/22 09:06:50;;;;;;;31.07;14.30;;;6.20;64.80;;;;;;5069986;28;20104;-81
2021/01/22 09:09:37;;;;;;;34.70;14.80;;;6.20;64.90;;;;;;5075098;28;20025;-81
2021/01/22 09:12:32;;;;;;;30.67;13.27;;;6.30;64.90;;;;;;5067644;28;20056;-81
2021/01/22 09:15:04;;;;;;;28.10;12.83;;;6.40;64.90;;;;;;5063301;28;20128;-81
2021/01/22 09:17:49;;;;;;;22.73;10.70;;;6.50;64.90;;;;;;5062371;28;20103;-81
2021/01/22 09:20:15;;;;;;;20.47;10.67;;;6.70;65.10;;;;;;5061696;28;20096;-81
2021/01/22 09:22:43;;;;;;;11.30;6.93;;;6.90;64.80;;;;;;5053809;28;20056;-81
2021/01/22 09:25:11;;;;;;;20.53;10.13;;;7.10;64.40;;;;;;5065183;28;20040;-81
2021/01/22 09:27:39;;;;;;;23.47;10.13;;;7.20;64.20;;;;;;5073021;28;20032;-81
2021/01/22 09:30:11;;;;;;;16.83;8.27;;;7.50;63.90;;;;;;5072628;28;20032;-81
2021/01/22 09:32:37;;;;;;;16.73;6.88;;;7.70;63.50;;;;;;5065657;28;20070;-81
2021/01/22 09:35:04;;;;;;;18.70;9.67;;;8.00;63.10;;;;;;5057895;28;20424;-81
2021/01/22 09:37:29;;;;;;;22.93;11.60;;;8.20;62.30;;;;;;5068784;28;20032;-82
2021/01/22 09:39:55;;;;;;;29.57;12.67;;;8.20;62.30;;;;;;5061332;28;20092;-82
2021/01/22 09:42:21;;;;;;;20.33;12.23;;;8.30;61.70;;;;;;5054042;28;20029;-82
2021/01/22 09:44:47;;;;;;;20.80;11.30;;;8.40;61.50;;;;;;5070154;28;20027;-82
2021/01/22 09:47:12;;;;;;;26.27;10.40;;;8.60;61.20;;;;;;5061967;28;20041;-82
2021/01/22 09:49:38;;;;;;;20.90;10.10;;;8.80;60.90;;;;;;5072451;28;20065;-82
2021/01/22 09:52:04;;;;;;;21.67;12.00;;;9.10;60.40;;;;;;5070804;28;20024;-82
2021/01/22 09:54:30;;;;;;;23.73;12.63;;;9.20;59.80;;;;;;5074556;28;20048;-82
2021/01/22 09:56:55;;;;;;;18.73;11.60;;;9.50;59.70;;;;;;5066043;28;20060;-82
2021/01/22 09:59:21;;;;;;;23.70;10.87;;;9.60;59.30;;;;;;5073000;28;20035;-82
2021/01/22 10:01:47;;;;;;;19.27;9.47;;;9.80;58.80;;;;;;5074695;28;20503;-82
2021/01/22 10:04:13;;;;;;;16.07;8.60;;;10.00;58.40;;;;;;5073763;28;20055;-82
2021/01/22 10:06:39;;;;;;;16.23;8.90;;;10.10;57.90;;;;;;5074869;28;20032;-83
2021/01/22 10:09:05;;;;;;;15.93;7.47;;;10.00;57.50;;;;;;5072508;28;20394;-83
2021/01/22 10:11:30;;;;;;;16.43;7.80;;;10.10;57.70;;;;;;5073114;28;20037;-83
2021/01/22 10:13:57;;;;;;;15.53;7.17;;;10.30;57.20;;;;;;5065528;28;20098;-83
2021/01/22 10:16:25;;;;;;;20.10;8.57;;;10.40;57.10;;;;;;5061180;28;20455;-83
2021/01/22 10:18:54;;;;;;;11.90;6.87;;;10.60;56.40;;;;;;5063866;28;20106;-83
2021/01/22 10:21:23;;;;;;;11.40;7.47;;;10.70;55.90;;;;;;5071618;28;20448;-83
2021/01/22 10:23:51;;;;;;;13.80;7.13;;;10.80;55.90;;;;;;5063688;28;20068;-83
2021/01/22 10:26:17;;;;;;;12.97;8.10;;;10.90;55.30;;;;;;5065092;28;20056;-83
2021/01/22 10:28:45;;;;;;;12.57;7.60;;;10.90;55.10;;;;;;5072617;28;20039;-83
2021/01/22 10:31:11;;;;;;;15.10;8.07;;;11.00;55.00;;;;;;5068579;28;20095;-83
2021/01/22 10:33:37;;;;;;;14.10;7.20;;;11.20;54.80;;;;;;5061645;28;20064;-83
2021/01/22 10:36:04;;;;;;;12.03;7.43;;;11.00;54.40;;;;;;5055201;28;20037;-83
2021/01/22 10:38:30;;;;;;;11.07;6.43;;;11.10;54.90;;;;;;5060867;28;20399;-82
2021/01/22 10:40:56;;;;;;;17.43;7.43;;;11.40;54.70;;;;;;5055841;28;20043;-83
2021/01/22 10:43:25;;;;;;;18.03;8.77;;;11.70;54.10;;;;;;5075869;28;20092;-84
2021/01/22 10:45:51;;;;;;;15.73;7.07;;;12.00;53.60;;;;;;5058182;28;20037;-83
2021/01/22 10:48:20;;;;;;;17.43;6.77;;;12.20;52.80;;;;;;5064026;28;20204;-83
2021/01/22 10:50:48;;;;;;;12.80;4.90;;;12.30;52.10;;;;;;5067715;28;20038;-82
2021/01/22 10:53:14;;;;;;;10.10;5.27;;;12.30;51.80;;;;;;5069525;28;20028;-82
2021/01/22 10:55:40;;;;;;;12.83;6.10;;;12.60;51.60;;;;;;5069706;28;20059;-81
2021/01/22 10:58:05;;;;;;;17.03;6.60;;;12.80;51.20;;;;;;5065248;28;20048;-81
2021/01/22 11:00:32;;;;;;;17.57;6.13;;;13.00;50.80;;;;;;5060448;28;20039;-82
2021/01/22 11:02:59;;;;;;;19.47;6.90;;;13.00;50.80;;;;;;5067646;28;20029;-82
2021/01/22 11:05:25;;;;;;;17.43;6.33;;;13.10;50.70;;;;;;5067215;28;20038;-82
2021/01/22 11:07:51;;;;;;;15.37;6.73;;;13.30;50.70;;;;;;5067928;28;20055;-81
2021/01/22 11:10:17;;;;;;;18.20;6.63;;;13.60;50.50;;;;;;5070652;28;20040;-82
2021/01/22 11:12:42;;;;;;;12.50;6.47;;;13.60;49.90;;;;;;5073174;28;20043;-82
2021/01/22 11:15:08;;;;;;;12.30;6.40;;;13.80;49.60;;;;;;5069768;28;20116;-82
2021/01/22 11:17:35;;;;;;;10.67;6.67;;;13.90;49.30;;;;;;5068867;28;20115;-82
2021/01/22 11:20:04;;;;;;;10.67;5.20;;;14.10;49.00;;;;;;5071684;28;20032;-82
2021/01/22 11:22:31;;;;;;;9.67;6.20;;;14.20;48.80;;;;;;5070322;28;20155;-81
2021/01/22 11:24:57;;;;;;;17.10;7.70;;;14.30;48.10;;;;;;5065157;28;20028;-81
2021/01/22 11:27:23;;;;;;;13.27;7.67;;;14.20;47.90;;;;;;5071315;28;20115;-81
2021/01/22 11:29:49;;;;;;;15.80;7.37;;;13.90;47.90;;;;;;5069773;28;20024;-81
2021/01/22 11:32:15;;;;;;;12.20;7.03;;;13.80;48.10;;;;;;5065028;28;20684;-82
2021/01/22 11:34:41;;;;;;;10.60;6.10;;;13.80;48.00;;;;;;5070165;28;20092;-82
2021/01/22 11:37:07;;;;;;;12.87;6.90;;;13.90;48.20;;;;;;5065284;28;20056;-82
2021/01/22 11:39:35;;;;;;;12.13;6.97;;;14.10;48.00;;;;;;5074143;28;20028;-82
2021/01/22 11:42:05;;;;;;;13.33;7.23;;;14.20;47.60;;;;;;5064372;28;20031;-82
2021/01/22 11:44:33;;;;;;;14.50;8.17;;;14.00;47.60;;;;;;5068115;28;20028;-82
2021/01/22 11:46:59;;;;;;;11.80;7.83;;;14.10;47.80;;;;;;5066399;28;20446;-82
2021/01/22 11:49:25;;;;;;;11.00;7.00;;;14.30;47.30;;;;;;5066934;28;20059;-82
2021/01/22 11:51:51;;;;;;;14.97;7.67;;;14.30;47.00;;;;;;5066924;28;20031;-82
2021/01/22 11:54:17;;;;;;;12.10;7.67;;;14.30;46.70;;;;;;5075555;28;20539;-82
2021/01/22 11:56:43;;;;;;;9.20;6.93;;;14.10;46.60;;;;;;5071449;28;20116;-82
2021/01/22 11:59:09;;;;;;;12.53;7.47;;;14.00;46.70;;;;;;5075062;28;20040;-82
2021/01/22 12:01:35;;;;;;;12.37;6.77;;;14.10;46.60;;;;;;5066834;28;20075;-82
2021/01/22 12:04:01;;;;;;;12.03;5.43;;;14.10;46.70;;;;;;5075456;28;20025;-82
2021/01/22 12:06:27;;;;;;;10.27;6.37;;;14.10;46.90;;;;;;5072462;28;20040;-83
2021/01/22 12:08:53;;;;;;;12.17;6.07;;;14.20;46.70;;;;;;5073986;28;20107;-82
2021/01/22 12:11:19;;;;;;;13.03;6.53;;;14.00;46.30;;;;;;5061578;28;20049;-79
2021/01/22 12:13:44;;;;;;;13.13;7.07;;;14.00;46.30;;;;;;5075330;28;20033;-81
2021/01/22 12:16:10;;;;;;;9.80;6.47;;;13.80;46.30;;;;;;5075355;28;20025;-81
2021/01/22 12:18:36;;;;;;;12.00;7.27;;;13.60;46.80;;;;;;5063636;28;20056;-81
2021/01/22 12:21:06;;;;;;;11.10;6.13;;;13.60;47.20;;;;;;5068429;28;20028;-81
2021/01/22 12:23:32;;;;;;;9.87;5.83;;;13.70;47.20;;;;;;5061418;28;20028;-81
2021/01/22 12:25:58;;;;;;;8.20;4.00;;;13.80;47.10;;;;;;5072758;28;20453;-81
2021/01/22 12:28:24;;;;;;;6.73;4.10;;;13.70;46.90;;;;;;5061443;28;20028;-81
2021/01/22 12:30:50;;;;;;;7.03;3.73;;;13.70;47.00;;;;;;5069238;28;20467;-80
2021/01/22 12:33:15;;;;;;;5.87;3.40;;;13.60;46.80;;;;;;5074284;28;20078;-81
2021/01/22 12:35:42;;;;;;;6.80;3.57;;;13.60;47.10;;;;;;5076572;28;20032;-81
2021/01/22 12:38:07;;;;;;;5.93;2.53;;;13.50;47.00;;;;;;5067582;28;20028;-80
2021/01/22 12:40:33;;;;;;;7.80;3.23;;;13.50;47.10;;;;;;5070799;28;20471;-81
2021/01/22 12:42:59;;;;;;;4.60;3.07;;;13.40;47.10;;;;;;5064528;28;20021;-81
2021/01/22 12:45:24;;;;;;;5.60;3.40;;;13.20;47.10;;;;;;5062436;28;20029;-80
2021/01/22 12:47:53;;;;;;;6.37;3.20;;;13.10;47.30;;;;;;5074036;28;20075;-81
2021/01/22 12:50:20;;;;;;;5.93;3.20;;;13.00;47.60;;;;;;5069488;28;20127;-81